createdAt,value
2022-12-06T00:01:55.867Z,95586.16
2022-12-06T00:04:57.626Z,95583.38
2022-12-06T00:08:00.704Z,95583.91
2022-12-06T00:11:03.234Z,95592.09
2022-12-06T00:14:06.458Z,95579.53
2022-12-06T00:17:08.137Z,95582.69
2022-12-06T00:20:10.469Z,95574.50
2022-12-06T00:23:13.561Z,95572.63
2022-12-06T00:26:15.775Z,95569.84
2022-12-06T00:29:18.244Z,95571.09
2022-12-06T00:32:20.166Z,95568.06
2022-12-06T00:35:21.870Z,95570.59
2022-12-06T00:38:25.211Z,95567.19
2022-12-06T00:41:26.904Z,95568.75
2022-12-06T00:44:28.601Z,95567.19
2022-12-06T00:47:30.247Z,95560.41
2022-12-06T00:50:32.049Z,95568.00
2022-12-06T00:53:35.280Z,95563.56
2022-12-06T00:56:37.298Z,95557.16
2022-12-06T00:59:39.031Z,95564.22
2022-12-06T01:02:40.721Z,95569.53
2022-12-06T01:05:43.039Z,95566.84
2022-12-06T01:08:46.214Z,95564.94
2022-12-06T01:11:47.887Z,95563.53
2022-12-06T01:14:49.608Z,95560.88
2022-12-06T01:17:51.370Z,95548.47
2022-12-06T01:20:53.135Z,95551.59
2022-12-06T01:23:56.683Z,95547.19
2022-12-06T01:26:58.399Z,95544.00
2022-12-06T01:30:00.209Z,95533.22
2022-12-06T01:33:02.431Z,95541.81
2022-12-06T01:36:04.654Z,95541.06
2022-12-06T01:39:07.725Z,95543.44
2022-12-06T01:42:09.654Z,95547.38
2022-12-06T01:45:11.559Z,95545.31
2022-12-06T01:48:13.331Z,95542.31
2022-12-06T01:51:15.631Z,95541.41
2022-12-06T01:54:19.666Z,95536.22
2022-12-06T01:57:21.580Z,95537.66
2022-12-06T02:00:23.287Z,95541.22
2022-12-06T02:03:27.294Z,95542.47
2022-12-06T02:06:30.144Z,95538.69
2022-12-06T02:09:33.849Z,95537.28
2022-12-06T02:12:35.663Z,95533.78
2022-12-06T02:15:46.996Z,95528.13
2022-12-06T02:18:51.498Z,95529.22
2022-12-06T02:21:56.694Z,95535.00
2022-12-06T02:25:07.931Z,95522.41
2022-12-06T02:28:21.026Z,95527.25
2022-12-06T02:31:27.228Z,95535.84
2022-12-06T02:34:31.519Z,95535.59
2022-12-06T02:37:36.841Z,95535.63
2022-12-06T02:40:41.834Z,95522.91
2022-12-06T02:43:46.387Z,95520.03
2022-12-06T02:46:50.945Z,95526.03
2022-12-06T02:49:53.587Z,95519.06
2022-12-06T02:52:58.424Z,95520.84
2022-12-06T02:56:00.673Z,95521.00
2022-12-06T02:59:04.386Z,95518.81
2022-12-06T03:02:10.542Z,95511.16
2022-12-06T03:05:18.167Z,95513.53
2022-12-06T03:08:27.823Z,95513.91
2022-12-06T03:11:33.344Z,95515.53
2022-12-06T03:14:37.778Z,95520.41
2022-12-06T03:17:46.380Z,95511.31
2022-12-06T03:20:51.855Z,95508.16
2022-12-06T03:23:54.027Z,95519.47
2022-12-06T03:26:57.256Z,95512.84
2022-12-06T03:30:00.561Z,95511.91
2022-12-06T03:33:04.895Z,95508.03
2022-12-06T03:36:07.260Z,95515.09
2022-12-06T03:39:09.178Z,95504.25
2022-12-06T03:42:11.424Z,95501.25
2022-12-06T03:45:13.762Z,95500.38
2022-12-06T03:48:19.212Z,95492.75
2022-12-06T03:51:22.700Z,95492.09
2022-12-06T03:54:24.453Z,95504.25
2022-12-06T03:57:26.227Z,95501.03
2022-12-06T04:00:28.027Z,95505.25
2022-12-06T04:03:31.276Z,95500.28
2022-12-06T04:06:33.090Z,95499.63
2022-12-06T04:09:34.750Z,95503.06
2022-12-06T04:12:36.592Z,95495.72
2022-12-06T04:15:39.198Z,95484.88
2022-12-06T04:18:42.272Z,95491.44
2022-12-06T04:21:43.854Z,95485.06
2022-12-06T04:24:45.629Z,95483.19
2022-12-06T04:27:47.312Z,95489.50
2022-12-06T04:30:48.916Z,95484.28
2022-12-06T04:33:51.994Z,95474.88
2022-12-06T04:36:53.705Z,95476.56
2022-12-06T04:39:55.339Z,95477.38
2022-12-06T04:42:56.986Z,95474.38
2022-12-06T04:45:58.905Z,95476.06
2022-12-06T04:49:02.009Z,95475.28
2022-12-06T04:52:03.996Z,95465.06
2022-12-06T04:55:06.698Z,95474.50
2022-12-06T04:58:08.349Z,95460.88
2022-12-06T05:01:10.117Z,95471.06
2022-12-06T05:04:13.465Z,95463.19
2022-12-06T05:07:15.315Z,95458.06
2022-12-06T05:10:17.267Z,95464.09
2022-12-06T05:13:20.032Z,95463.66
2022-12-06T05:16:21.822Z,95463.53
2022-12-06T05:19:25.258Z,95466.72
2022-12-06T05:22:27.043Z,95464.09
2022-12-06T05:25:29.501Z,95467.56
2022-12-06T05:28:31.380Z,95465.03
2022-12-06T05:31:33.426Z,95466.72
2022-12-06T05:34:36.597Z,95465.34
2022-12-06T05:37:38.217Z,95454.50
2022-12-06T05:40:39.931Z,95466.31
2022-12-06T05:43:41.664Z,95463.31
2022-12-06T05:46:43.412Z,95456.25
2022-12-06T05:49:46.493Z,95456.56
2022-12-06T05:52:48.202Z,95459.44
2022-12-06T05:55:50.260Z,95460.19
2022-12-06T05:58:51.932Z,95455.94
2022-12-06T06:01:53.717Z,95452.34
2022-12-06T06:04:57.048Z,95454.81
2022-12-06T06:07:58.827Z,95455.28
2022-12-06T06:11:01.493Z,95446.88
2022-12-06T06:14:03.130Z,95452.16
2022-12-06T06:17:04.823Z,95449.16
2022-12-06T06:20:09.093Z,95453.63
2022-12-06T06:23:10.753Z,95456.44
2022-12-06T06:26:12.466Z,95457.63
2022-12-06T06:29:14.095Z,95459.75
2022-12-06T06:32:15.778Z,95458.97
2022-12-06T06:35:18.972Z,95464.50
2022-12-06T06:38:20.676Z,95454.22
2022-12-06T06:41:22.359Z,95455.44
2022-12-06T06:44:24.033Z,95452.59
2022-12-06T06:47:25.703Z,95464.25
2022-12-06T06:50:28.775Z,95469.56
2022-12-06T06:53:30.466Z,95463.84
2022-12-06T06:56:32.127Z,95468.06
2022-12-06T06:59:33.907Z,95478.53
2022-12-06T07:02:35.594Z,95473.97
2022-12-06T07:05:38.627Z,95468.66
2022-12-06T07:08:41.237Z,95482.44
2022-12-06T07:11:42.938Z,95484.75
2022-12-06T07:14:44.651Z,95478.78
2022-12-06T07:17:46.361Z,95481.78
2022-12-06T07:20:49.803Z,95476.47
2022-12-06T07:23:51.576Z,95483.88
2022-12-06T07:26:53.501Z,95483.94
2022-12-06T07:29:55.222Z,95481.28
2022-12-06T07:32:57.220Z,95480.69
2022-12-06T07:36:15.618Z,95476.00
2022-12-06T07:39:17.341Z,95484.38
2022-12-06T07:42:19.091Z,95473.50
2022-12-06T07:45:20.838Z,95473.34
2022-12-06T07:48:22.563Z,95475.19
2022-12-06T07:51:25.726Z,95470.47
2022-12-06T07:54:27.409Z,95474.97
2022-12-06T07:57:29.096Z,95480.28
2022-12-06T08:00:30.884Z,95483.50
2022-12-06T08:03:35.350Z,95481.69
2022-12-06T08:06:38.520Z,95485.28
2022-12-06T08:09:40.325Z,95481.69
2022-12-06T08:12:42.002Z,95478.66
2022-12-06T08:15:43.828Z,95484.19
2022-12-06T08:18:47.557Z,95476.88
2022-12-06T08:21:50.729Z,95474.69
2022-12-06T08:24:52.511Z,95481.44
2022-12-06T08:27:54.241Z,95479.56
2022-12-06T08:31:02.712Z,95483.19
2022-12-06T08:34:04.937Z,95486.63
2022-12-06T08:37:08.008Z,95483.78
2022-12-06T08:40:09.861Z,95492.44
2022-12-06T08:43:11.655Z,95487.75
2022-12-06T08:46:13.583Z,95492.22
2022-12-06T08:49:16.862Z,95495.03
2022-12-06T08:52:20.027Z,95489.31
2022-12-06T08:55:21.733Z,95486.00
2022-12-06T08:58:23.398Z,95498.69
2022-12-06T09:01:26.752Z,95490.22
2022-12-06T09:04:28.675Z,95489.13
2022-12-06T09:07:31.926Z,95495.56
2022-12-06T09:10:33.700Z,95499.06
2022-12-06T09:13:36.316Z,95494.75
2022-12-06T09:16:38.023Z,95498.50
2022-12-06T09:19:39.612Z,95502.28
2022-12-06T09:22:42.690Z,95505.84
2022-12-06T09:25:44.323Z,95504.22
2022-12-06T09:28:47.566Z,95499.44
2022-12-06T09:31:49.404Z,95500.56
2022-12-06T09:34:51.230Z,95506.22
2022-12-06T09:37:54.431Z,95506.69
2022-12-06T09:41:04.509Z,95504.59
2022-12-06T09:44:14.378Z,95494.03
2022-12-06T09:47:21.302Z,95502.16
2022-12-06T09:50:28.449Z,95498.69
2022-12-06T09:53:36.999Z,95491.78
2022-12-06T09:56:42.745Z,95492.81
2022-12-06T09:59:49.639Z,95487.16
2022-12-06T10:03:12.028Z,95485.25
2022-12-06T10:06:15.866Z,95484.00
2022-12-06T10:09:25.468Z,95474.69
2022-12-06T10:12:36.656Z,95468.34
2022-12-06T10:15:45.265Z,95468.13
2022-12-06T10:18:54.044Z,95474.38
2022-12-06T10:22:04.008Z,95463.59
2022-12-06T10:25:11.011Z,95456.16
2022-12-06T10:28:13.521Z,95450.25
2022-12-06T10:31:22.377Z,95455.38
2022-12-06T10:34:32.176Z,95453.16
2022-12-06T10:37:39.551Z,95452.59
2022-12-06T10:40:47.599Z,95450.47
2022-12-06T10:43:52.700Z,95451.94
2022-12-06T10:46:57.541Z,95438.59
2022-12-06T10:50:03.701Z,95444.16
2022-12-06T10:53:13.144Z,95442.91
2022-12-06T10:56:18.141Z,95444.47
2022-12-06T10:59:30.686Z,95437.91
2022-12-06T11:02:36.925Z,95435.03
2022-12-06T11:05:43.233Z,95425.25
2022-12-06T11:08:46.526Z,95435.91
2022-12-06T11:11:50.014Z,95426.91
2022-12-06T11:14:52.966Z,95425.56
2022-12-06T11:18:02.527Z,95426.44
2022-12-06T11:21:12.270Z,95424.13
2022-12-06T11:24:21.218Z,95434.03
2022-12-06T11:27:26.453Z,95430.03
2022-12-06T11:30:28.956Z,95432.25
2022-12-06T11:33:31.731Z,95440.72
2022-12-06T11:36:33.526Z,95432.91
2022-12-06T11:39:35.275Z,95435.13
2022-12-06T11:42:38.394Z,95422.91
2022-12-06T11:45:41.440Z,95423.91
2022-12-06T11:48:43.578Z,95413.53
2022-12-06T11:51:45.250Z,95423.41
2022-12-06T11:54:49.911Z,95418.41
2022-12-06T11:57:56.226Z,95413.63
2022-12-06T12:00:59.983Z,95417.00
2022-12-06T12:04:21.752Z,95414.53
2022-12-06T12:07:23.985Z,95416.56
2022-12-06T12:10:32.112Z,95416.00
2022-12-06T12:13:35.304Z,95411.91
2022-12-06T12:16:42.656Z,95400.44
2022-12-06T12:19:46.880Z,95399.41
2022-12-06T12:22:54.793Z,95396.09
2022-12-06T12:26:00.869Z,95391.16
2022-12-06T12:29:05.783Z,95385.25
2022-12-06T12:32:10.467Z,95380.00
2022-12-06T12:35:23.896Z,95395.47
2022-12-06T12:38:32.885Z,95400.47
2022-12-06T12:41:38.364Z,95393.91
2022-12-06T12:44:45.953Z,95388.00
2022-12-06T12:47:56.200Z,95376.25
2022-12-06T12:50:58.889Z,95372.22
2022-12-06T12:54:01.713Z,95368.66
2022-12-06T12:57:11.281Z,95369.50
2022-12-06T13:00:15.442Z,95377.44
2022-12-06T13:03:53.621Z,95362.47
2022-12-06T13:06:45.938Z,95365.81
2022-12-06T13:09:54.845Z,95362.81
2022-12-06T13:12:58.707Z,95367.72
2022-12-06T13:16:02.698Z,95370.94
2022-12-06T13:19:14.215Z,95363.41
2022-12-06T13:22:17.899Z,95364.72
2022-12-06T13:25:19.608Z,95369.81
2022-12-06T13:28:26.203Z,95371.31
2022-12-06T13:31:29.718Z,95352.38
2022-12-06T13:34:37.767Z,95353.38
2022-12-06T13:37:44.715Z,95350.75
2022-12-06T13:40:48.216Z,95354.78
2022-12-06T13:43:49.936Z,95355.13
2022-12-06T13:47:01.995Z,95355.31
2022-12-06T13:50:26.303Z,95358.72
2022-12-06T13:53:28.704Z,95353.06
2022-12-06T13:56:36.581Z,95343.22
2022-12-06T13:59:39.045Z,95343.22
2022-12-06T14:02:45.333Z,95348.00
2022-12-06T14:06:03.417Z,95339.31
2022-12-06T14:09:09.071Z,95346.53
2022-12-06T14:12:16.739Z,95343.88
2022-12-06T14:15:18.828Z,95334.56
2022-12-06T14:18:22.801Z,95350.50
2022-12-06T14:21:29.497Z,95338.38
2022-12-06T14:24:33.575Z,95341.22
2022-12-06T14:27:42.827Z,95341.78
2022-12-06T14:30:44.929Z,95341.44
2022-12-06T14:33:46.881Z,95326.97
2022-12-06T14:36:49.930Z,95328.94
2022-12-06T14:39:52.429Z,95326.47
2022-12-06T14:42:57.945Z,95329.13
2022-12-06T14:46:00.726Z,95322.34
2022-12-06T14:49:02.596Z,95338.38
2022-12-06T14:52:17.656Z,95321.56
2022-12-06T14:55:19.929Z,95314.56
2022-12-06T14:58:23.121Z,95313.09
2022-12-06T15:01:26.571Z,95311.31
2022-12-06T15:04:34.724Z,95307.09
2022-12-06T15:07:42.756Z,95317.88
2022-12-06T15:10:53.322Z,95307.63
2022-12-06T15:14:10.661Z,95318.41
2022-12-06T15:17:16.127Z,95314.25
2022-12-06T15:20:17.842Z,95311.50
2022-12-06T15:23:34.386Z,95312.28
2022-12-06T15:26:37.536Z,95301.59
2022-12-06T15:29:39.221Z,95308.06
2022-12-06T15:32:40.856Z,95305.91
2022-12-06T15:35:42.561Z,95310.38
2022-12-06T15:38:44.280Z,95292.38
2022-12-06T15:41:47.414Z,95294.59
2022-12-06T15:44:50.248Z,95283.03
2022-12-06T15:47:51.898Z,95278.56
2022-12-06T15:50:53.604Z,95281.56
2022-12-06T15:53:56.399Z,95267.78
2022-12-06T15:56:59.465Z,95271.56
2022-12-06T16:00:01.341Z,95258.53
2022-12-06T16:03:03.035Z,95264.31
2022-12-06T16:06:04.982Z,95254.75
2022-12-06T16:09:06.655Z,95258.53
2022-12-06T16:12:10.411Z,95266.19
2022-12-06T16:15:12.099Z,95267.81
2022-12-06T16:18:13.888Z,95274.44
2022-12-06T16:21:18.848Z,95266.31
2022-12-06T16:24:20.973Z,95263.53
2022-12-06T16:27:24.019Z,95251.69
2022-12-06T16:30:30.668Z,95254.91
2022-12-06T16:33:32.501Z,95256.91
2022-12-06T16:36:34.503Z,95248.63
2022-12-06T16:39:36.292Z,95256.41
2022-12-06T16:42:39.381Z,95258.97
2022-12-06T16:45:43.208Z,95253.41
2022-12-06T16:48:44.918Z,95249.31
2022-12-06T16:51:47.466Z,95250.94
2022-12-06T16:54:49.775Z,95249.16
2022-12-06T16:57:53.432Z,95242.84
2022-12-06T17:00:55.453Z,95232.59
2022-12-06T17:03:58.443Z,95237.59
2022-12-06T17:07:01.066Z,95246.25
2022-12-06T17:10:03.142Z,95245.34
2022-12-06T17:13:07.590Z,95244.50
2022-12-06T17:16:09.998Z,95250.47
2022-12-06T17:19:13.964Z,95248.38
2022-12-06T17:22:16.560Z,95240.31
2022-12-06T17:25:18.691Z,95243.63
2022-12-06T17:28:24.833Z,95241.19
2022-12-06T17:31:27.301Z,95253.28
2022-12-06T17:34:29.909Z,95256.84
2022-12-06T17:37:32.021Z,95256.84
2022-12-06T17:40:34.484Z,95266.31
2022-12-06T17:43:37.955Z,95265.06
2022-12-06T17:46:40.574Z,95257.53
2022-12-06T17:49:42.685Z,95264.41
2022-12-06T17:52:47.855Z,95258.19
2022-12-06T17:55:49.778Z,95265.28
2022-12-06T17:58:53.836Z,95265.63
2022-12-06T18:02:14.899Z,95272.06
2022-12-06T18:05:18.274Z,95267.19
2022-12-06T18:08:20.459Z,95271.97
2022-12-06T18:11:23.000Z,95271.41
2022-12-06T18:14:26.472Z,95277.09
2022-12-06T18:17:29.364Z,95280.94
2022-12-06T18:20:31.724Z,95279.50
2022-12-06T18:23:34.756Z,95275.63
2022-12-06T18:26:42.589Z,95285.84
2022-12-06T18:29:46.636Z,95290.38
2022-12-06T18:32:48.669Z,95296.97
2022-12-06T18:35:51.594Z,95294.75
2022-12-06T18:38:57.602Z,95290.63
2022-12-06T18:41:59.701Z,95284.19
2022-12-06T18:45:04.036Z,95286.28
2022-12-06T18:48:09.834Z,95291.97
2022-12-06T18:51:13.380Z,95288.16
2022-12-06T18:54:16.021Z,95282.94
2022-12-06T18:57:19.000Z,95286.50
2022-12-06T19:00:23.535Z,95286.81
2022-12-06T19:03:26.162Z,95287.28
2022-12-06T19:06:29.899Z,95286.94
2022-12-06T19:09:32.554Z,95292.72
2022-12-06T19:12:34.997Z,95292.50
2022-12-06T19:15:39.170Z,95303.94
2022-12-06T19:18:42.016Z,95296.13
2022-12-06T19:21:44.911Z,95292.16
2022-12-06T19:24:48.293Z,95298.72
2022-12-06T19:27:51.773Z,95300.81
2022-12-06T19:31:00.573Z,95297.50
2022-12-06T19:34:02.492Z,95291.06
2022-12-06T19:37:05.180Z,95285.06
2022-12-06T19:40:09.149Z,95289.63
2022-12-06T19:43:12.873Z,95296.03
2022-12-06T19:46:21.764Z,95296.28
2022-12-06T19:49:26.537Z,95295.06
2022-12-06T19:52:30.960Z,95298.41
2022-12-06T19:55:36.879Z,95298.28
2022-12-06T19:58:40.776Z,95299.50
2022-12-06T20:01:46.671Z,95305.50
2022-12-06T20:04:49.607Z,95306.41
2022-12-06T20:07:54.537Z,95299.63
2022-12-06T20:11:01.149Z,95301.28
2022-12-06T20:14:05.749Z,95298.50
2022-12-06T20:17:10.775Z,95296.06
2022-12-06T20:20:14.018Z,95294.97
2022-12-06T20:23:16.924Z,95299.09
2022-12-06T20:26:19.785Z,95302.28
2022-12-06T20:29:22.768Z,95293.63
2022-12-06T20:32:27.352Z,95293.31
2022-12-06T20:35:29.965Z,95295.41
2022-12-06T20:38:33.542Z,95298.28
2022-12-06T20:41:37.300Z,95292.50
2022-12-06T20:44:39.495Z,95286.41
2022-12-06T20:47:48.592Z,95288.19
2022-12-06T20:50:51.030Z,95290.84
2022-12-06T20:53:55.104Z,95294.97
2022-12-06T20:56:57.769Z,95288.41
2022-12-06T21:00:05.175Z,95305.19
2022-12-06T21:03:11.610Z,95290.06
2022-12-06T21:06:14.464Z,95287.41
2022-12-06T21:09:16.524Z,95288.41
2022-12-06T21:12:18.642Z,95286.72
2022-12-06T21:15:20.706Z,95285.28
2022-12-06T21:18:28.469Z,95285.09
2022-12-06T21:21:32.549Z,95283.72
2022-12-06T21:24:34.402Z,95291.53
2022-12-06T21:27:36.371Z,95291.97
2022-12-06T21:30:38.422Z,95286.41
2022-12-06T21:33:41.943Z,95294.81
2022-12-06T21:36:43.929Z,95288.06
2022-12-06T21:39:45.635Z,95288.63
2022-12-06T21:42:47.332Z,95294.94
2022-12-06T21:45:49.043Z,95302.94
2022-12-06T21:48:52.685Z,95302.63
2022-12-06T21:52:00.319Z,95305.63
2022-12-06T21:55:02.844Z,95305.16
2022-12-06T21:58:04.491Z,95314.16
2022-12-06T22:01:06.818Z,95306.06
2022-12-06T22:04:09.875Z,95307.84
2022-12-06T22:07:11.654Z,95319.16
2022-12-06T22:10:13.370Z,95310.59
2022-12-06T22:13:15.030Z,95311.38
2022-12-06T22:16:16.808Z,95311.94
2022-12-06T22:19:20.091Z,95311.06
2022-12-06T22:22:22.033Z,95313.19
2022-12-06T22:25:23.784Z,95307.72
2022-12-06T22:28:25.471Z,95300.59
2022-12-06T22:31:27.903Z,95308.06
2022-12-06T22:34:30.984Z,95309.16
2022-12-06T22:37:32.659Z,95306.16
2022-12-06T22:40:34.620Z,95311.16
2022-12-06T22:43:36.981Z,95307.38
2022-12-06T22:46:38.757Z,95314.41
2022-12-06T22:49:41.881Z,95310.50
2022-12-06T22:52:43.558Z,95315.41
2022-12-06T22:55:45.376Z,95317.50
2022-12-06T22:58:47.481Z,95314.19
2022-12-06T23:01:49.296Z,95310.97
2022-12-06T23:04:52.407Z,95308.25
2022-12-06T23:07:54.207Z,95312.75
2022-12-06T23:11:00.076Z,95306.31
2022-12-06T23:14:01.991Z,95317.72
2022-12-06T23:17:03.753Z,95307.72
2022-12-06T23:20:08.753Z,95309.06
2022-12-06T23:23:10.478Z,95308.19
2022-12-06T23:26:13.015Z,95316.50
2022-12-06T23:29:15.577Z,95306.53
2022-12-06T23:32:17.265Z,95308.75
2022-12-06T23:35:20.321Z,95310.75
2022-12-06T23:38:22.095Z,95308.75
2022-12-06T23:41:24.694Z,95315.41
2022-12-06T23:44:26.356Z,95310.84
2022-12-06T23:47:28.050Z,95303.41
2022-12-06T23:50:31.105Z,95311.84
2022-12-06T23:53:32.974Z,95297.75
2022-12-06T23:56:35.446Z,95299.16
2022-12-06T23:59:37.083Z,95300.03
